createdAt,value
2022-10-01T00:06:23.291Z,309.9130434782609
2022-10-01T00:15:13.705Z,296.5685618729097
2022-10-01T00:22:00.438Z,298.44147157190633
2022-10-01T00:35:17.425Z,319.6454849498328
2022-10-01T00:41:46.433Z,298.6421404682274
2022-10-01T00:53:54.561Z,300.4314381270903
2022-10-01T01:00:22.675Z,299.314381270903
2022-10-01T01:09:13.819Z,308.5117056856187
2022-10-01T01:21:34.545Z,318.47491638795987
2022-10-01T01:28:02.272Z,312.95317725752506
2022-10-01T01:34:30.694Z,315.67224080267556
2022-10-01T01:45:46.745Z,298.04682274247494
2022-10-01T01:55:41.664Z,298.0200668896321
2022-10-01T02:02:10.239Z,304.96655518394647
2022-10-01T02:08:38.281Z,322.8528428093646
2022-10-01T02:15:05.842Z,340.056856187291
2022-10-01T02:21:34.305Z,358.9397993311037
2022-10-01T02:31:19.768Z,357.4515050167224
2022-10-01T02:43:25.241Z,374.4515050167224
2022-10-01T02:52:21.157Z,383.0869565217391
2022-10-01T03:01:37.151Z,396.09698996655516
2022-10-01T03:08:04.150Z,416.9096989966555
2022-10-01T03:14:31.998Z,411.3010033444816
2022-10-01T03:20:59.137Z,426.44147157190633
2022-10-01T03:27:35.278Z,427.8361204013378
2022-10-01T03:34:03.163Z,435.0802675585284
2022-10-01T03:40:31.228Z,435.6387959866221
2022-10-01T03:46:59.360Z,424.7157190635451
2022-10-01T03:53:27.211Z,443.3444816053512
2022-10-01T03:59:55.008Z,434.3478260869565
2022-10-01T04:06:23.992Z,429.8595317725752
2022-10-01T04:17:45.720Z,410.46488294314383
2022-10-01T04:24:14.529Z,400.7892976588629
2022-10-01T04:30:42.523Z,398.60200668896323
2022-10-01T04:37:09.912Z,393.3745819397993
2022-10-01T04:43:38.477Z,382.5551839464883
2022-10-01T04:53:03.958Z,375.09698996655516
2022-10-01T04:59:32.160Z,363.2943143812709
2022-10-01T05:05:59.913Z,371.2274247491639
2022-10-01T05:12:29.084Z,341.123745819398
2022-10-01T05:18:57.099Z,334.24749163879596
2022-10-01T05:25:25.674Z,302.5551839464883
2022-10-01T05:31:55.207Z,284.4983277591973
2022-10-01T05:38:25.078Z,278.8595317725752
2022-10-01T05:44:52.465Z,288.46153846153845
2022-10-01T05:51:20.424Z,291.27090301003346
2022-10-01T05:57:48.168Z,298.67892976588627
2022-10-01T06:04:15.296Z,289.82274247491637
2022-10-01T06:10:44.144Z,293.53177257525084
2022-10-01T06:17:11.966Z,267.6521739130435
2022-10-01T06:23:50.657Z,283.61538461538464
2022-10-01T06:30:18.737Z,252.1036789297659
2022-10-01T06:39:49.913Z,227.2408026755853
2022-10-01T06:50:47.707Z,224.91304347826087
2022-10-01T06:57:15.802Z,216.77926421404683
2022-10-01T07:03:43.931Z,211.74916387959865
2022-10-01T07:10:11.147Z,200.34113712374582
2022-10-01T07:21:25.490Z,190.40133779264215
2022-10-01T07:27:59.562Z,196.38127090301003
2022-10-01T07:34:28.934Z,191.58862876254182
2022-10-01T07:40:59.916Z,187.41471571906354
2022-10-01T07:47:29.666Z,185.5752508361204
2022-10-01T07:53:58.917Z,206.57859531772576
2022-10-01T08:00:28.123Z,208.5752508361204
2022-10-01T08:06:55.584Z,240.68896321070235
2022-10-01T08:18:52.239Z,253.34782608695653
2022-10-01T08:25:27.849Z,290.0735785953177
2022-10-01T08:31:55.480Z,332.38461538461536
2022-10-01T08:38:23.342Z,334.7324414715719
2022-10-01T08:44:51.202Z,342.38461538461536
2022-10-01T08:51:19.713Z,343.68896321070235
2022-10-01T09:04:22.414Z,364.17391304347825
2022-10-01T09:10:53.446Z,375.2240802675585
2022-10-01T09:17:22.077Z,382.88628762541805
2022-10-01T09:23:55.919Z,390.40802675585286
2022-10-01T09:30:30.382Z,383.33110367892976
2022-10-01T09:37:13.737Z,416.61538461538464
2022-10-01T09:43:46.089Z,417.16722408026754
2022-10-01T09:55:44.879Z,384.6989966555184
2022-10-01T10:02:15.637Z,389.5785953177257
2022-10-01T10:08:46.427Z,411.8829431438127
2022-10-01T10:15:16.878Z,390.1438127090301
2022-10-01T10:21:47.538Z,387.18060200668896
2022-10-01T10:28:22.804Z,368.41471571906357
2022-10-01T10:34:57.025Z,373.04682274247494
2022-10-01T10:41:33.198Z,374.45484949832775
2022-10-01T10:50:35.465Z,413.38461538461536
2022-10-01T10:57:05.140Z,354.67892976588627
2022-10-01T11:03:43.724Z,335.3578595317726
2022-10-01T11:10:13.893Z,306.8494983277592
2022-10-01T11:16:45.671Z,322.46488294314383
2022-10-01T11:23:14.977Z,313.2608695652174
2022-10-01T11:35:54.599Z,297.11371237458195
2022-10-01T11:42:25.050Z,249.27090301003344
2022-10-01T11:53:06.008Z,234.79598662207357
2022-10-01T12:01:37.980Z,228.95652173913044
2022-10-01T12:08:08.606Z,242.314381270903
2022-10-01T12:16:19.089Z,228.40802675585283
2022-10-01T12:24:44.823Z,193.44147157190636
2022-10-01T12:35:34.146Z,221.48494983277592
2022-10-01T12:42:03.883Z,199.7123745819398
2022-10-01T12:48:37.419Z,212.6153846153846
2022-10-01T12:59:15.608Z,45.68561872909699
2022-10-01T13:05:46.560Z,43.04347826086956
2022-10-01T13:13:07.767Z,38.80936454849498
2022-10-01T13:19:37.893Z,37.02341137123746
2022-10-01T13:26:08.287Z,34.625418060200666
2022-10-01T13:38:30.812Z,52.585284280936456
2022-10-01T13:45:01.109Z,43.27090301003344
2022-10-01T13:55:11.357Z,38.61538461538461
2022-10-01T14:01:44.319Z,62.64548494983278
2022-10-01T14:13:15.640Z,49.96655518394649
2022-10-01T14:19:47.008Z,46.408026755852845
2022-10-01T14:26:21.417Z,44.81605351170568
2022-10-01T14:32:52.790Z,52.62876254180602
2022-10-01T14:39:24.225Z,60.66220735785953
2022-10-01T14:45:56.880Z,72.36120401337793
2022-10-01T14:52:28.250Z,55.61204013377927
2022-10-01T15:04:37.457Z,56.247491638795985
2022-10-01T15:11:08.495Z,49.34448160535117
2022-10-01T15:17:37.660Z,56.458193979933114
2022-10-01T15:24:07.915Z,53.725752508361204
2022-10-01T15:30:40.210Z,53.5685618729097
2022-10-01T15:37:08.755Z,48.84615384615385
2022-10-01T15:43:40.819Z,58.50501672240803
2022-10-01T15:50:16.008Z,58.585284280936456
2022-10-01T15:56:50.245Z,58.247491638795985
2022-10-01T16:03:20.082Z,60.357859531772576
2022-10-01T16:09:47.889Z,78.22408026755853
2022-10-01T16:16:16.312Z,72.01672240802675
2022-10-01T16:26:53.190Z,61.9933110367893
2022-10-01T16:33:21.109Z,75.95986622073579
2022-10-01T16:39:49.081Z,71.8361204013378
2022-10-01T16:49:02.150Z,91.92976588628763
2022-10-01T16:57:10.324Z,102.5886287625418
2022-10-01T17:03:38.399Z,100.57190635451505
2022-10-01T17:10:06.108Z,151.67558528428094
2022-10-01T17:16:34.763Z,106.66889632107024
2022-10-01T17:23:03.897Z,94.80267558528428
2022-10-01T17:29:32.890Z,115.29765886287625
2022-10-01T17:36:01.341Z,104.25418060200668
2022-10-01T17:42:31.073Z,101.88294314381271
2022-10-01T17:48:58.946Z,116.17725752508362
2022-10-01T17:55:27.487Z,177.76923076923077
2022-10-01T18:01:56.009Z,190.23076923076923
2022-10-01T18:12:44.512Z,177.72240802675586
2022-10-01T18:19:52.385Z,176.27090301003344
2022-10-01T18:26:21.309Z,173.79933110367892
2022-10-01T18:32:51.789Z,146.05685618729098
2022-10-01T18:42:01.965Z,170.85284280936455
2022-10-01T18:56:58.844Z,166.91973244147158
2022-10-01T19:15:36.188Z,150.20735785953178
2022-10-01T19:32:09.228Z,159.77257525083613
2022-10-01T19:49:41.214Z,159.22073578595317
2022-10-01T20:10:40.592Z,170.3846153846154
2022-10-01T20:42:01.786Z,137.22073578595317
2022-10-01T21:13:41.148Z,141.63210702341138
2022-10-01T21:31:00.375Z,140.79933110367892
2022-10-01T21:55:33.162Z,133.1438127090301
2022-10-01T22:23:07.468Z,116.11705685618729
2022-10-01T22:41:50.621Z,111.98327759197325
2022-10-01T22:57:08.862Z,105.60535117056857
2022-10-01T23:04:33.289Z,115.66889632107024
2022-10-01T23:12:48.098Z,114.49832775919732
2022-10-01T23:19:15.212Z,107.80936454849498
2022-10-01T23:25:46.707Z,102.4314381270903
2022-10-01T23:32:14.715Z,111.92307692307692
2022-10-01T23:38:41.523Z,108.05016722408027
2022-10-01T23:56:50.621Z,110.36454849498328
